createdAt,value
2022-08-25T00:00:03.465Z,1008.49
2022-08-25T00:01:03.563Z,1008.46
2022-08-25T00:02:03.155Z,1008.45
2022-08-25T00:03:03.286Z,1008.46
2022-08-25T00:04:02.583Z,1008.42
2022-08-25T00:05:03.145Z,1008.44
2022-08-25T00:06:03.037Z,1008.47
2022-08-25T00:07:03.525Z,1008.47
2022-08-25T00:08:03.064Z,1008.49
2022-08-25T00:09:03.168Z,1008.45
2022-08-25T00:10:03.549Z,1008.54
2022-08-25T00:11:03.803Z,1008.51
2022-08-25T00:12:02.619Z,1008.49
2022-08-25T00:13:02.742Z,1008.52
2022-08-25T00:14:02.726Z,1008.53
2022-08-25T00:15:02.720Z,1008.53
2022-08-25T00:16:03.058Z,1008.48
2022-08-25T00:17:02.793Z,1008.49
2022-08-25T00:18:02.855Z,1008.49
2022-08-25T00:19:02.861Z,1008.52
2022-08-25T00:20:02.758Z,1008.52
2022-08-25T00:21:02.852Z,1008.48
2022-08-25T00:22:03.434Z,1008.51
2022-08-25T00:23:03.669Z,1008.51
2022-08-25T00:24:03.582Z,1008.54
2022-08-25T00:25:03.465Z,1008.49
2022-08-25T00:26:03.575Z,1008.45
2022-08-25T00:27:02.796Z,1008.46
2022-08-25T00:28:06.508Z,1008.46
2022-08-25T00:29:02.882Z,1008.44
2022-08-25T00:30:02.676Z,1008.44
2022-08-25T00:31:02.626Z,1008.45
2022-08-25T00:32:03.290Z,1008.47
2022-08-25T00:33:03.199Z,1008.42
2022-08-25T00:34:03.719Z,1008.39
2022-08-25T00:35:03.449Z,1008.43
2022-08-25T00:36:03.133Z,1008.43
2022-08-25T00:37:02.807Z,1008.44
2022-08-25T00:38:02.700Z,1008.42
2022-08-25T00:39:02.679Z,1008.41
2022-08-25T00:40:02.599Z,1008.45
2022-08-25T00:41:02.690Z,1008.44
2022-08-25T00:42:03.052Z,1008.43
2022-08-25T00:43:03.671Z,1008.44
2022-08-25T00:44:03.322Z,1008.42
2022-08-25T00:45:03.568Z,1008.45
2022-08-25T00:46:03.470Z,1008.42
2022-08-25T00:47:03.415Z,1008.45
2022-08-25T00:48:03.593Z,1008.43
2022-08-25T00:49:03.396Z,1008.45
2022-08-25T00:50:03.226Z,1008.44
2022-08-25T00:51:03.401Z,1008.46
2022-08-25T00:52:02.988Z,1008.44
2022-08-25T00:53:03.240Z,1008.41
2022-08-25T00:54:02.851Z,1008.45
2022-08-25T00:55:08.287Z,1008.44
2022-08-25T00:56:02.863Z,1008.45
2022-08-25T00:57:03.335Z,1008.42
2022-08-25T00:58:03.596Z,1008.42
2022-08-25T00:59:03.367Z,1008.43
2022-08-25T01:00:03.459Z,1008.45
2022-08-25T01:01:03.549Z,1008.41
2022-08-25T01:02:03.200Z,1008.43
2022-08-25T01:03:03.481Z,1008.47
2022-08-25T01:04:03.285Z,1008.46
2022-08-25T01:05:03.230Z,1008.42
2022-08-25T01:06:03.139Z,1008.45
2022-08-25T01:07:02.807Z,1008.43
2022-08-25T01:08:02.603Z,1008.45
2022-08-25T01:09:02.863Z,1008.45
2022-08-25T01:10:02.698Z,1008.46
2022-08-25T01:11:02.577Z,1008.41
2022-08-25T01:12:03.051Z,1008.45
2022-08-25T01:13:03.340Z,1008.43
2022-08-25T01:14:03.093Z,1008.41
2022-08-25T01:15:02.734Z,1008.42
2022-08-25T01:16:03.172Z,1008.43
2022-08-25T01:17:02.861Z,1008.43
2022-08-25T01:18:02.767Z,1008.43
2022-08-25T01:19:02.571Z,1008.41
2022-08-25T01:20:02.500Z,1008.42
2022-08-25T01:21:03.061Z,1008.37
2022-08-25T01:22:03.220Z,1008.37
2022-08-25T01:23:03.062Z,1008.40
2022-08-25T01:24:03.041Z,1008.39
2022-08-25T01:25:02.953Z,1008.40
2022-08-25T01:26:03.558Z,1008.43
2022-08-25T01:27:02.971Z,1008.41
2022-08-25T01:28:03.158Z,1008.42
2022-08-25T01:29:02.910Z,1008.44
2022-08-25T01:30:02.845Z,1008.42
2022-08-25T01:31:02.532Z,1008.46
2022-08-25T01:32:03.182Z,1008.46
2022-08-25T01:33:02.946Z,1008.47
2022-08-25T01:34:02.894Z,1008.43
2022-08-25T01:35:02.827Z,1008.45
2022-08-25T01:36:03.272Z,1008.43
2022-08-25T01:37:03.466Z,1008.41
2022-08-25T01:38:03.421Z,1008.43
2022-08-25T01:39:03.573Z,1008.41
2022-08-25T01:40:03.586Z,1008.41
2022-08-25T01:41:03.264Z,1008.43
2022-08-25T01:42:03.869Z,1008.41
2022-08-25T01:43:03.750Z,1008.41
2022-08-25T01:44:03.661Z,1008.41
2022-08-25T01:45:03.524Z,1008.38
2022-08-25T01:46:03.438Z,1008.40
2022-08-25T01:47:03.122Z,1008.36
2022-08-25T01:48:03.108Z,1008.37
2022-08-25T01:49:06.708Z,1008.39
2022-08-25T01:50:02.635Z,1008.38
2022-08-25T01:51:02.580Z,1008.38
2022-08-25T01:52:03.262Z,1008.38
2022-08-25T01:53:02.978Z,1008.37
2022-08-25T01:54:02.921Z,1008.36
2022-08-25T01:55:02.814Z,1008.38
2022-08-25T01:56:03.810Z,1008.38
2022-08-25T01:57:03.347Z,1008.40
2022-08-25T01:58:03.332Z,1008.39
2022-08-25T01:59:03.331Z,1008.40
2022-08-25T02:00:03.043Z,1008.41
2022-08-25T02:01:03.038Z,1008.37
2022-08-25T02:02:04.870Z,1008.38
2022-08-25T02:03:02.659Z,1008.38
2022-08-25T02:04:02.601Z,1008.39
2022-08-25T02:05:02.514Z,1008.38
2022-08-25T02:06:04.208Z,1008.39
2022-08-25T02:07:02.691Z,1008.40
2022-08-25T02:08:03.359Z,1008.48
2022-08-25T02:09:03.167Z,1008.38
2022-08-25T02:10:03.460Z,1008.41
2022-08-25T02:11:02.704Z,1008.43
2022-08-25T02:12:02.408Z,1008.41
2022-08-25T02:13:02.681Z,1008.45
2022-08-25T02:14:02.542Z,1008.45
2022-08-25T02:15:02.481Z,1008.50
2022-08-25T02:16:02.911Z,1008.48
2022-08-25T02:17:02.922Z,1008.44
2022-08-25T02:18:02.915Z,1008.46
2022-08-25T02:19:03.361Z,1008.45
2022-08-25T02:20:03.472Z,1008.43
2022-08-25T02:21:03.269Z,1008.48
2022-08-25T02:22:02.275Z,1008.46
2022-08-25T02:23:02.205Z,1008.44
2022-08-25T02:24:02.844Z,1008.45
2022-08-25T02:25:02.879Z,1008.49
2022-08-25T02:26:02.300Z,1008.46
2022-08-25T02:27:02.917Z,1008.47
2022-08-25T02:28:02.860Z,1008.48
2022-08-25T02:29:03.502Z,1008.50
2022-08-25T02:30:03.051Z,1008.48
2022-08-25T02:31:03.053Z,1008.52
2022-08-25T02:32:02.075Z,1008.51
2022-08-25T02:33:02.056Z,1008.50
2022-08-25T02:34:02.354Z,1008.54
2022-08-25T02:35:02.153Z,1008.53
2022-08-25T02:36:02.437Z,1008.51
2022-08-25T02:37:02.361Z,1008.50
2022-08-25T02:38:03.040Z,1008.54
2022-08-25T02:39:02.516Z,1008.55
2022-08-25T02:40:02.561Z,1008.53
2022-08-25T02:41:02.548Z,1008.54
2022-08-25T02:42:03.467Z,1008.51
2022-08-25T02:43:03.452Z,1008.50
2022-08-25T02:44:03.338Z,1008.51
2022-08-25T02:45:03.262Z,1008.49
2022-08-25T02:46:03.659Z,1008.46
2022-08-25T02:47:02.433Z,1008.48
2022-08-25T02:48:02.283Z,1008.47
2022-08-25T02:49:02.238Z,1008.50
2022-08-25T02:50:02.651Z,1008.50
2022-08-25T02:51:02.580Z,1008.49
2022-08-25T02:52:02.482Z,1008.49
2022-08-25T02:53:02.318Z,1008.49
2022-08-25T02:54:02.919Z,1008.49
2022-08-25T02:55:02.613Z,1008.49
2022-08-25T02:56:02.514Z,1008.48
2022-08-25T02:57:02.595Z,1008.46
2022-08-25T02:58:02.716Z,1008.43
2022-08-25T02:59:02.825Z,1008.44
2022-08-25T03:00:02.922Z,1008.44
2022-08-25T03:01:03.063Z,1008.46
2022-08-25T03:02:02.799Z,1008.43
2022-08-25T03:03:02.751Z,1008.42
2022-08-25T03:04:02.884Z,1008.40
2022-08-25T03:05:02.918Z,1008.40
2022-08-25T03:06:02.940Z,1008.40
2022-08-25T03:07:01.974Z,1008.41
2022-08-25T03:08:01.927Z,1008.39
2022-08-25T03:09:01.942Z,1008.41
2022-08-25T03:10:01.881Z,1008.36
2022-08-25T03:11:01.811Z,1008.35
2022-08-25T03:12:02.400Z,1008.35
2022-08-25T03:13:02.391Z,1008.38
2022-08-25T03:14:02.190Z,1008.33
2022-08-25T03:15:02.838Z,1008.31
2022-08-25T03:16:02.926Z,1008.33
2022-08-25T03:17:02.879Z,1008.30
2022-08-25T03:18:03.144Z,1008.30
2022-08-25T03:19:02.564Z,1008.25
2022-08-25T03:20:02.649Z,1008.25
2022-08-25T03:21:02.609Z,1008.23
2022-08-25T03:22:02.256Z,1008.24
2022-08-25T03:23:02.582Z,1008.26
2022-08-25T03:24:02.311Z,1008.22
2022-08-25T03:25:02.230Z,1008.19
2022-08-25T03:26:02.437Z,1008.24
2022-08-25T03:27:02.392Z,1008.23
2022-08-25T03:28:02.436Z,1008.20
2022-08-25T03:29:02.458Z,1008.20
2022-08-25T03:30:02.098Z,1008.22
2022-08-25T03:31:02.636Z,1008.20
2022-08-25T03:32:02.509Z,1008.23
2022-08-25T03:33:02.312Z,1008.23
2022-08-25T03:34:02.809Z,1008.22
2022-08-25T03:35:02.498Z,1008.23
2022-08-25T03:36:02.733Z,1008.18
2022-08-25T03:37:02.313Z,1008.18
2022-08-25T03:38:02.451Z,1008.15
2022-08-25T03:39:02.504Z,1008.17
2022-08-25T03:40:02.507Z,1008.18
2022-08-25T03:41:02.296Z,1008.13
2022-08-25T03:42:02.411Z,1008.16
2022-08-25T03:43:02.322Z,1008.14
2022-08-25T03:44:02.162Z,1008.15
2022-08-25T03:45:02.117Z,1008.17
2022-08-25T03:46:02.754Z,1008.13
2022-08-25T03:47:02.457Z,1008.12
2022-08-25T03:48:02.374Z,1008.14
2022-08-25T03:49:02.770Z,1008.09
2022-08-25T03:50:02.514Z,1008.10
2022-08-25T03:51:02.396Z,1008.10
2022-08-25T03:52:03.052Z,1008.10
2022-08-25T03:53:02.976Z,1008.14
2022-08-25T03:54:02.978Z,1008.16
2022-08-25T03:55:02.949Z,1008.12
2022-08-25T03:56:03.144Z,1008.10
2022-08-25T03:57:02.527Z,1008.09
2022-08-25T03:58:02.644Z,1008.08
2022-08-25T03:59:02.544Z,1008.07
2022-08-25T04:00:02.598Z,1008.05
2022-08-25T04:01:02.767Z,1008.02
2022-08-25T04:02:03.177Z,1008.00
2022-08-25T04:03:03.052Z,1007.97
2022-08-25T04:04:02.933Z,1007.98
2022-08-25T04:05:02.796Z,1007.97
2022-08-25T04:06:02.846Z,1007.97
2022-08-25T04:07:03.527Z,1007.97
2022-08-25T04:08:03.672Z,1007.97
2022-08-25T04:09:03.561Z,1007.98
2022-08-25T04:10:03.543Z,1007.95
2022-08-25T04:11:03.451Z,1007.91
2022-08-25T04:12:03.181Z,1007.95
2022-08-25T04:13:03.092Z,1007.91
2022-08-25T04:14:03.114Z,1007.94
2022-08-25T04:15:03.134Z,1007.92
2022-08-25T04:16:03.079Z,1007.95
2022-08-25T04:17:03.833Z,1007.97
2022-08-25T04:18:03.933Z,1007.95
2022-08-25T04:19:03.828Z,1007.97
2022-08-25T04:20:03.326Z,1007.95
2022-08-25T04:21:03.360Z,1007.97
2022-08-25T04:22:03.233Z,1007.95
2022-08-25T04:23:03.307Z,1007.92
2022-08-25T04:24:02.996Z,1007.95
2022-08-25T04:25:03.268Z,1007.95
2022-08-25T04:26:03.049Z,1007.90
2022-08-25T04:27:03.470Z,1007.88
2022-08-25T04:28:03.119Z,1007.89
2022-08-25T04:29:03.046Z,1007.89
2022-08-25T04:30:03.232Z,1007.89
2022-08-25T04:31:03.305Z,1007.89
2022-08-25T04:32:03.154Z,1007.91
2022-08-25T04:33:02.500Z,1007.88
2022-08-25T04:34:02.526Z,1007.89
2022-08-25T04:35:02.530Z,1007.90
2022-08-25T04:36:02.615Z,1007.84
2022-08-25T04:37:03.358Z,1007.88
2022-08-25T04:38:03.161Z,1007.85
2022-08-25T04:39:02.722Z,1007.89
2022-08-25T04:40:02.845Z,1007.86
2022-08-25T04:41:02.959Z,1007.88
2022-08-25T04:42:03.468Z,1007.82
2022-08-25T04:43:03.520Z,1007.86
2022-08-25T04:44:03.199Z,1007.85
2022-08-25T04:45:03.211Z,1007.80
2022-08-25T04:46:03.717Z,1007.83
2022-08-25T04:47:03.292Z,1007.81
2022-08-25T04:48:03.064Z,1007.84
2022-08-25T04:49:03.178Z,1007.83
2022-08-25T04:50:03.276Z,1007.83
2022-08-25T04:51:02.684Z,1007.87
2022-08-25T04:52:03.385Z,1007.84
2022-08-25T04:53:03.208Z,1007.89
2022-08-25T04:54:03.285Z,1007.87
2022-08-25T04:55:03.296Z,1007.89
2022-08-25T04:56:03.982Z,1007.93
2022-08-25T04:57:03.520Z,1007.92
2022-08-25T04:58:03.011Z,1007.93
2022-08-25T04:59:03.135Z,1007.94
2022-08-25T05:00:03.223Z,1007.92
2022-08-25T05:01:02.920Z,1007.92
2022-08-25T05:02:02.850Z,1007.94
2022-08-25T05:03:02.167Z,1007.95
2022-08-25T05:04:02.125Z,1007.92
2022-08-25T05:05:02.149Z,1007.90
2022-08-25T05:06:02.120Z,1007.91
2022-08-25T05:07:02.212Z,1007.90
2022-08-25T05:08:02.849Z,1007.88
2022-08-25T05:09:02.782Z,1007.88
2022-08-25T05:10:02.617Z,1007.86
2022-08-25T05:11:02.268Z,1007.85
2022-08-25T05:12:02.898Z,1007.82
2022-08-25T05:13:02.431Z,1007.85
2022-08-25T05:14:02.389Z,1007.86
2022-08-25T05:15:02.496Z,1007.81
2022-08-25T05:16:02.992Z,1007.83
2022-08-25T05:17:02.315Z,1007.86
2022-08-25T05:18:02.185Z,1007.84
2022-08-25T05:19:01.949Z,1007.87
2022-08-25T05:20:01.844Z,1007.89
2022-08-25T05:21:02.236Z,1007.89
2022-08-25T05:22:02.352Z,1007.89
2022-08-25T05:23:02.544Z,1007.89
2022-08-25T05:24:02.758Z,1007.89
2022-08-25T05:25:02.908Z,1007.88
2022-08-25T05:26:02.710Z,1007.89
2022-08-25T05:27:02.470Z,1007.87
2022-08-25T05:28:02.843Z,1007.83
2022-08-25T05:29:02.361Z,1007.84
2022-08-25T05:30:02.909Z,1007.80
2022-08-25T05:31:02.969Z,1007.80
2022-08-25T05:32:01.809Z,1007.78
2022-08-25T05:33:01.894Z,1007.78
2022-08-25T05:34:02.040Z,1007.79
2022-08-25T05:35:01.722Z,1007.75
2022-08-25T05:36:01.859Z,1007.72
2022-08-25T05:37:02.511Z,1007.75
2022-08-25T05:38:02.591Z,1007.67
2022-08-25T05:39:02.733Z,1007.72
2022-08-25T05:40:02.911Z,1007.73
2022-08-25T05:41:02.743Z,1007.72
2022-08-25T05:42:02.244Z,1007.70
2022-08-25T05:43:01.903Z,1007.71
2022-08-25T05:44:01.622Z,1007.69
2022-08-25T05:45:02.294Z,1007.70
2022-08-25T05:46:02.222Z,1007.72
2022-08-25T05:47:02.173Z,1007.75
2022-08-25T05:48:02.474Z,1007.72
2022-08-25T05:49:02.369Z,1007.72
2022-08-25T05:50:02.076Z,1007.69
2022-08-25T05:51:02.553Z,1007.71
2022-08-25T05:52:02.454Z,1007.71
2022-08-25T05:53:02.737Z,1007.73
2022-08-25T05:54:02.661Z,1007.75
2022-08-25T05:55:02.753Z,1007.73
2022-08-25T05:56:02.321Z,1007.74
2022-08-25T05:57:01.896Z,1007.70
2022-08-25T05:58:02.086Z,1007.66
2022-08-25T05:59:06.099Z,1007.70
2022-08-25T06:00:02.515Z,1007.66
2022-08-25T06:01:02.578Z,1007.64
2022-08-25T06:02:03.464Z,1007.63
2022-08-25T06:03:03.553Z,1007.61
2022-08-25T06:04:03.644Z,1007.60
2022-08-25T06:05:04.092Z,1007.54
2022-08-25T06:06:03.217Z,1007.55
2022-08-25T06:07:02.967Z,1007.56
2022-08-25T06:08:03.098Z,1007.59
2022-08-25T06:09:03.102Z,1007.54
2022-08-25T06:10:03.342Z,1007.58
2022-08-25T06:11:03.232Z,1007.59
2022-08-25T06:12:03.364Z,1007.56
2022-08-25T06:13:03.409Z,1007.56
2022-08-25T06:14:03.439Z,1007.57
2022-08-25T06:15:03.502Z,1007.59
2022-08-25T06:16:03.669Z,1007.58
2022-08-25T06:17:03.785Z,1007.59
2022-08-25T06:18:03.551Z,1007.61
2022-08-25T06:19:03.640Z,1007.60
2022-08-25T06:20:03.835Z,1007.64
2022-08-25T06:21:03.822Z,1007.61
2022-08-25T06:22:03.302Z,1007.61
2022-08-25T06:23:03.366Z,1007.55
2022-08-25T06:24:03.486Z,1007.56
2022-08-25T06:25:03.132Z,1007.57
2022-08-25T06:26:03.376Z,1007.57
2022-08-25T06:27:02.890Z,1007.60
2022-08-25T06:28:03.040Z,1007.61
2022-08-25T06:29:02.654Z,1007.60
2022-08-25T06:30:08.035Z,1007.62
2022-08-25T06:31:03.034Z,1007.60
2022-08-25T06:32:02.946Z,1007.60
2022-08-25T06:33:03.342Z,1007.64
2022-08-25T06:34:02.760Z,1007.65
2022-08-25T06:35:02.781Z,1007.67
2022-08-25T06:36:02.839Z,1007.65
2022-08-25T06:37:03.680Z,1007.69
2022-08-25T06:38:03.809Z,1007.68
2022-08-25T06:39:03.460Z,1007.69
2022-08-25T06:40:03.464Z,1007.73
2022-08-25T06:41:03.507Z,1007.70
2022-08-25T06:42:02.967Z,1007.72
2022-08-25T06:43:03.476Z,1007.70
2022-08-25T06:44:05.441Z,1007.69
2022-08-25T06:45:03.395Z,1007.64
2022-08-25T06:46:03.410Z,1007.62
2022-08-25T06:47:03.622Z,1007.65
2022-08-25T06:48:03.349Z,1007.66
2022-08-25T06:49:03.422Z,1007.67
2022-08-25T06:50:03.421Z,1007.63
2022-08-25T06:51:03.471Z,1007.67
2022-08-25T06:52:03.330Z,1007.65
2022-08-25T06:53:03.513Z,1007.68
2022-08-25T06:54:03.472Z,1007.68
2022-08-25T06:55:03.333Z,1007.67
2022-08-25T06:56:06.525Z,1007.67
2022-08-25T06:57:03.890Z,1007.64
2022-08-25T06:58:04.897Z,1007.69
2022-08-25T06:59:03.486Z,1007.68
2022-08-25T07:00:04.011Z,1007.67
2022-08-25T07:01:04.126Z,1007.66
2022-08-25T07:02:03.716Z,1007.66
2022-08-25T07:03:02.880Z,1007.68
2022-08-25T07:04:02.869Z,1007.73
2022-08-25T07:05:03.148Z,1007.69
2022-08-25T07:06:03.319Z,1007.71
2022-08-25T07:07:03.231Z,1007.70
2022-08-25T07:08:03.159Z,1007.69
2022-08-25T07:09:02.820Z,1007.69
2022-08-25T07:10:03.004Z,1007.68
2022-08-25T07:11:03.172Z,1007.69
2022-08-25T07:12:03.458Z,1007.69
2022-08-25T07:13:03.065Z,1007.73
2022-08-25T07:14:03.465Z,1007.67
2022-08-25T07:15:19.454Z,1007.67
2022-08-25T07:16:02.908Z,1007.69
2022-08-25T07:17:02.939Z,1007.69
2022-08-25T07:18:02.628Z,1007.68
2022-08-25T07:19:02.701Z,1007.67
2022-08-25T07:20:02.712Z,1007.68
2022-08-25T07:21:02.945Z,1007.65
2022-08-25T07:22:03.050Z,1007.64
2022-08-25T07:23:02.818Z,1007.62
2022-08-25T07:24:02.872Z,1007.60
2022-08-25T07:25:02.919Z,1007.61
2022-08-25T07:26:08.140Z,1007.56
2022-08-25T07:27:03.095Z,1007.60
2022-08-25T07:28:02.662Z,1007.57
2022-08-25T07:29:03.058Z,1007.59
2022-08-25T07:30:04.372Z,1007.59
2022-08-25T07:31:03.179Z,1007.64
2022-08-25T07:32:02.775Z,1007.60
2022-08-25T07:33:06.758Z,1007.64
2022-08-25T07:34:02.151Z,1007.57
2022-08-25T07:35:02.682Z,1007.60
2022-08-25T07:36:02.549Z,1007.56
2022-08-25T07:37:03.308Z,1007.56
2022-08-25T07:38:03.217Z,1007.61
2022-08-25T07:39:03.112Z,1007.57
2022-08-25T07:40:02.843Z,1007.55
2022-08-25T07:41:02.882Z,1007.58
2022-08-25T07:42:02.099Z,1007.60
2022-08-25T07:43:02.504Z,1007.59
2022-08-25T07:44:02.586Z,1007.60
2022-08-25T07:45:02.687Z,1007.59
2022-08-25T07:46:02.553Z,1007.60
2022-08-25T07:47:02.791Z,1007.58
2022-08-25T07:48:02.976Z,1007.61
2022-08-25T07:49:03.108Z,1007.57
2022-08-25T07:50:03.245Z,1007.58
2022-08-25T07:51:05.526Z,1007.58
2022-08-25T07:52:05.318Z,1007.57
2022-08-25T07:53:02.662Z,1007.55
2022-08-25T07:54:02.817Z,1007.55
2022-08-25T07:55:02.959Z,1007.57
2022-08-25T07:57:03.185Z,1007.57
2022-08-25T07:58:03.495Z,1007.58
2022-08-25T07:59:03.497Z,1007.58
2022-08-25T08:00:03.631Z,1007.60
2022-08-25T08:01:03.246Z,1007.60
2022-08-25T08:02:02.347Z,1007.63
2022-08-25T08:03:03.767Z,1007.61
2022-08-25T08:04:03.662Z,1007.63
2022-08-25T08:05:02.471Z,1007.67
2022-08-25T08:06:02.569Z,1007.63
2022-08-25T08:07:02.722Z,1007.68
2022-08-25T08:08:02.822Z,1007.66
2022-08-25T08:09:03.104Z,1007.67
2022-08-25T08:10:29.661Z,1007.64
2022-08-25T08:11:04.727Z,1007.66
2022-08-25T08:12:02.080Z,1007.63
2022-08-25T08:13:02.196Z,1007.68
2022-08-25T08:14:02.511Z,1007.64
2022-08-25T08:15:02.437Z,1007.65
2022-08-25T08:16:02.562Z,1007.63
2022-08-25T08:17:02.505Z,1007.60
2022-08-25T08:18:03.102Z,1007.61
2022-08-25T08:19:02.341Z,1007.56
2022-08-25T08:20:03.010Z,1007.59
2022-08-25T08:21:02.890Z,1007.52
2022-08-25T08:22:02.841Z,1007.51
2022-08-25T08:23:03.351Z,1007.49
2022-08-25T08:24:05.073Z,1007.49
2022-08-25T08:25:03.261Z,1007.49
2022-08-25T08:26:03.379Z,1007.52
2022-08-25T08:27:02.306Z,1007.49
2022-08-25T08:28:02.575Z,1007.52
2022-08-25T08:29:02.629Z,1007.49
2022-08-25T08:30:02.747Z,1007.50
2022-08-25T08:31:02.258Z,1007.48
2022-08-25T08:32:03.005Z,1007.45
2022-08-25T08:33:12.023Z,1007.45
2022-08-25T08:34:03.486Z,1007.38
2022-08-25T08:35:03.447Z,1007.35
2022-08-25T08:36:05.166Z,1007.35
2022-08-25T08:37:02.549Z,1007.29
2022-08-25T08:38:02.970Z,1007.22
2022-08-25T08:39:02.841Z,1007.23
2022-08-25T08:40:03.326Z,1007.20
2022-08-25T08:41:02.974Z,1007.17
2022-08-25T08:42:11.177Z,1007.15
2022-08-25T08:43:03.068Z,1007.14
2022-08-25T08:44:03.301Z,1007.10
2022-08-25T08:45:02.996Z,1007.14
2022-08-25T08:46:02.757Z,1007.13
2022-08-25T08:47:02.662Z,1007.14
2022-08-25T08:48:03.049Z,1007.10
2022-08-25T08:49:02.804Z,1007.11
2022-08-25T08:50:03.853Z,1007.11
2022-08-25T08:51:02.814Z,1007.07
2022-08-25T08:52:02.965Z,1007.07
2022-08-25T08:53:03.219Z,1007.11
2022-08-25T08:54:03.338Z,1007.07
2022-08-25T08:55:05.636Z,1007.01
2022-08-25T08:56:02.920Z,1007.09
2022-08-25T08:57:02.710Z,1007.03
2022-08-25T08:58:02.895Z,1007.12
2022-08-25T08:59:06.376Z,1007.07
2022-08-25T09:00:02.708Z,1007.05
2022-08-25T09:01:02.866Z,1007.05
2022-08-25T09:02:02.162Z,1007.05
2022-08-25T09:03:02.091Z,1007.04
2022-08-25T09:04:02.232Z,1007.00
2022-08-25T09:05:01.695Z,1007.02
2022-08-25T09:06:01.932Z,1007.00
2022-08-25T09:07:02.370Z,1006.96
2022-08-25T09:08:02.358Z,1007.00
2022-08-25T09:09:02.537Z,1007.00
2022-08-25T09:10:02.320Z,1006.99
2022-08-25T09:11:02.438Z,1007.00
2022-08-25T09:12:02.121Z,1006.96
2022-08-25T09:13:02.004Z,1006.98
2022-08-25T09:14:02.175Z,1007.00
2022-08-25T09:15:02.343Z,1006.95
2022-08-25T09:16:02.278Z,1006.94
2022-08-25T09:17:02.183Z,1006.93
2022-08-25T09:18:02.097Z,1006.94
2022-08-25T09:19:01.897Z,1006.93
2022-08-25T09:20:01.988Z,1006.96
2022-08-25T09:21:02.163Z,1006.86
2022-08-25T09:22:02.267Z,1006.86
2022-08-25T09:23:02.458Z,1006.86
2022-08-25T09:24:02.136Z,1006.83
2022-08-25T09:25:04.370Z,1006.80
2022-08-25T09:26:02.128Z,1006.77
2022-08-25T09:27:02.968Z,1006.77
2022-08-25T09:28:02.700Z,1006.77
2022-08-25T09:29:03.154Z,1006.74
2022-08-25T09:30:05.237Z,1006.74
2022-08-25T09:31:03.201Z,1006.74
2022-08-25T09:32:02.428Z,1006.73
2022-08-25T09:33:02.210Z,1006.73
2022-08-25T09:34:02.407Z,1006.66
2022-08-25T09:35:02.067Z,1006.70
2022-08-25T09:36:04.613Z,1006.72
2022-08-25T09:37:02.931Z,1006.68
2022-08-25T09:38:02.930Z,1006.65
2022-08-25T09:39:02.991Z,1006.60
2022-08-25T09:40:02.922Z,1006.66
2022-08-25T09:41:02.956Z,1006.59
2022-08-25T09:42:02.620Z,1006.61
2022-08-25T09:43:02.350Z,1006.60
2022-08-25T09:44:02.306Z,1006.56
2022-08-25T09:45:02.488Z,1006.56
2022-08-25T09:46:02.298Z,1006.59
2022-08-25T09:47:03.113Z,1006.49
2022-08-25T09:48:02.931Z,1006.51
2022-08-25T09:49:02.915Z,1006.54
2022-08-25T09:50:05.248Z,1006.49
2022-08-25T09:51:03.317Z,1006.48
2022-08-25T09:52:02.672Z,1006.51
2022-08-25T09:53:02.462Z,1006.48
2022-08-25T09:54:02.212Z,1006.47
2022-08-25T09:55:02.345Z,1006.45
2022-08-25T09:56:02.770Z,1006.43
2022-08-25T09:57:03.227Z,1006.44
2022-08-25T09:58:03.220Z,1006.40
2022-08-25T09:59:03.271Z,1006.37
2022-08-25T10:00:03.061Z,1006.39
2022-08-25T10:01:02.952Z,1006.37
2022-08-25T10:02:02.197Z,1006.39
2022-08-25T10:03:05.918Z,1006.41
2022-08-25T10:04:02.354Z,1006.39
2022-08-25T10:05:02.636Z,1006.38
2022-08-25T10:06:02.831Z,1006.37
2022-08-25T10:07:02.425Z,1006.30
2022-08-25T10:08:02.756Z,1006.30
2022-08-25T10:09:02.899Z,1006.30
2022-08-25T10:10:03.071Z,1006.29
2022-08-25T10:11:02.981Z,1006.27
2022-08-25T10:12:02.860Z,1006.26
2022-08-25T10:13:03.101Z,1006.19
2022-08-25T10:14:03.336Z,1006.23
2022-08-25T10:15:03.452Z,1006.19
2022-08-25T10:16:03.429Z,1006.21
2022-08-25T10:17:03.491Z,1006.17
2022-08-25T10:18:02.663Z,1006.19
2022-08-25T10:19:03.087Z,1006.17
2022-08-25T10:20:02.740Z,1006.19
2022-08-25T10:21:02.906Z,1006.17
2022-08-25T10:22:03.199Z,1006.19
2022-08-25T10:23:03.124Z,1006.15
2022-08-25T10:24:02.419Z,1006.14
2022-08-25T10:25:04.649Z,1006.12
2022-08-25T10:26:03.621Z,1006.13
2022-08-25T10:27:02.828Z,1006.06
2022-08-25T10:28:02.754Z,1006.08
2022-08-25T10:29:02.967Z,1006.14
2022-08-25T10:30:03.120Z,1006.08
2022-08-25T10:31:02.627Z,1006.11
2022-08-25T10:32:02.854Z,1006.09
2022-08-25T10:33:02.644Z,1006.10
2022-08-25T10:34:02.522Z,1006.10
2022-08-25T10:35:02.592Z,1006.06
2022-08-25T10:36:02.760Z,1006.06
2022-08-25T10:37:02.765Z,1006.06
2022-08-25T10:38:02.671Z,1006.02
2022-08-25T10:39:02.874Z,1006.01
2022-08-25T10:40:03.117Z,1006.02
2022-08-25T10:41:02.595Z,1005.99
2022-08-25T10:42:02.898Z,1006.01
2022-08-25T10:43:03.208Z,1006.03
2022-08-25T10:44:03.198Z,1006.04
2022-08-25T10:45:03.229Z,1006.02
2022-08-25T10:46:03.133Z,1006.01
2022-08-25T10:47:03.116Z,1005.96
2022-08-25T10:48:03.790Z,1005.93
2022-08-25T10:49:03.614Z,1005.94
2022-08-25T10:50:03.464Z,1005.91
2022-08-25T10:51:03.288Z,1005.93
2022-08-25T10:52:03.454Z,1005.88
2022-08-25T10:53:03.168Z,1005.85
2022-08-25T10:54:02.787Z,1005.84
2022-08-25T10:55:03.443Z,1005.77
2022-08-25T10:56:03.339Z,1005.78
2022-08-25T10:57:03.424Z,1005.76
2022-08-25T10:58:03.121Z,1005.76
2022-08-25T10:59:03.337Z,1005.79
2022-08-25T11:00:03.426Z,1005.76
2022-08-25T11:01:03.226Z,1005.79
2022-08-25T11:02:03.521Z,1005.72
2022-08-25T11:03:03.840Z,1005.74
2022-08-25T11:04:03.301Z,1005.70
2022-08-25T11:05:03.512Z,1005.69
2022-08-25T11:06:03.251Z,1005.70
2022-08-25T11:07:03.647Z,1005.69
2022-08-25T11:08:03.255Z,1005.61
2022-08-25T11:09:03.372Z,1005.65
2022-08-25T11:10:03.559Z,1005.63
2022-08-25T11:11:03.198Z,1005.61
2022-08-25T11:12:03.325Z,1005.63
2022-08-25T11:13:02.781Z,1005.61
2022-08-25T11:14:06.381Z,1005.62
2022-08-25T11:15:03.150Z,1005.65
2022-08-25T11:16:18.895Z,1005.61
2022-08-25T11:17:03.308Z,1005.62
2022-08-25T11:18:03.715Z,1005.64
2022-08-25T11:19:05.426Z,1005.62
2022-08-25T11:20:03.357Z,1005.64
2022-08-25T11:21:03.474Z,1005.64
2022-08-25T11:22:03.581Z,1005.63
2022-08-25T11:23:02.840Z,1005.67
2022-08-25T11:24:02.967Z,1005.65
2022-08-25T11:25:03.615Z,1005.62
2022-08-25T11:26:03.395Z,1005.59
2022-08-25T11:27:03.297Z,1005.63
2022-08-25T11:28:04.150Z,1005.61
2022-08-25T11:29:03.704Z,1005.62
2022-08-25T11:30:05.928Z,1005.58
2022-08-25T11:31:04.024Z,1005.58
2022-08-25T11:32:04.094Z,1005.61
2022-08-25T11:33:03.594Z,1005.59
2022-08-25T11:34:03.197Z,1005.58
2022-08-25T11:35:03.338Z,1005.59
2022-08-25T11:36:03.474Z,1005.58
2022-08-25T11:37:03.695Z,1005.56
2022-08-25T11:38:02.898Z,1005.55
2022-08-25T11:39:03.108Z,1005.54
2022-08-25T11:40:03.233Z,1005.48
2022-08-25T11:41:03.342Z,1005.54
2022-08-25T11:42:03.230Z,1005.56
2022-08-25T11:43:03.443Z,1005.53
2022-08-25T11:44:03.618Z,1005.56
2022-08-25T11:45:03.818Z,1005.52
2022-08-25T11:46:03.930Z,1005.54
2022-08-25T11:47:03.913Z,1005.57
2022-08-25T11:48:03.211Z,1005.54
2022-08-25T11:49:03.482Z,1005.53
2022-08-25T11:50:03.068Z,1005.52
2022-08-25T11:51:03.259Z,1005.48
2022-08-25T11:52:03.539Z,1005.51
2022-08-25T11:53:03.564Z,1005.46
2022-08-25T11:54:03.819Z,1005.44
2022-08-25T11:55:03.448Z,1005.43
2022-08-25T11:56:03.556Z,1005.49
2022-08-25T11:57:03.757Z,1005.45
2022-08-25T11:58:04.101Z,1005.42
2022-08-25T11:59:03.779Z,1005.39
2022-08-25T12:00:03.736Z,1005.40
2022-08-25T12:01:04.059Z,1005.34
2022-08-25T12:02:04.193Z,1005.32
2022-08-25T12:03:02.522Z,1005.29
2022-08-25T12:04:02.396Z,1005.32
2022-08-25T12:05:02.538Z,1005.30
2022-08-25T12:06:02.583Z,1005.30